Aérodrome :
LOGIN :

S'inscrire | Disclaimer

   EN    FR    IT 

 










Légende :    VFR   VFR Marginal   IFR   IFR Intensif   IFR Très Intensif
Visi : 
Plafond : 
>= 8 km
>= 3000ft
5 à 8 km
1000 à 3000 ft
1500m à 5 km
500 à 1000 ft
800 à 1500m
200 à 500 ft
< 800m
< 200 ft
Symboles :   Orages  Brouillard  Fortes neiges  Fortes précipitations  Vent > 20 kt
SIGMETs :   Divers  Orages  Givrage  Turbulence  Onde Orograph.  Cendres Volcan.






- Altitude de l'aérodrome : 461 ft
- Code IATA : WIE


ETOU - Wiesbaden Army

DERNIER METAR :
  • 240356Z AUTO 21004KT 9000 BR OVC008 00/M02 A3028 RMK AO2 SLP265 T00031016 $

METARs EXPIRÉS :
  • 240256Z AUTO 19004KT 9000 BR OVC008 00/M02 A3029 RMK AO2 SLP267 T00021016 57015 $
  • 240156Z AUTO 00000KT 9999 OVC008 00/M02 A3030 RMK AO2 SLP271 T00021017 $

TAF TAF ETOU
Valide du 24 à 04h jusqu'au 25 à 10h UTC


240400Z 2404/2510 18002KT 5000 BR BKN008 620081 QNH3026INS
BECMG 2411/2412 18004KT 9999 NSW BKN014 QNH3026INS
BECMG 2422/2423 VRB06KT 0400 FZFG OVC006 QNH3022INS TX02/2415Z TNM02/2500Z



MET'MAP, la Météo Aéronautique d'un coup d'oeil ! - Copyright ORBIFLY Décembre 2007 - Disclaimer

ORBIFLY MET'MAP TEAM :

Programmation & Développement : Alexandra Zaïnal
Sur une idée originale de : Baudouin d'Aumeries
Assistance à la programmation : Marc-Olivier Méhu
Soutien technique & logistique : Manuel Goepfert

Contact : metmap@orbifly.com




SOURCES & CREDITS :

   NOAA